sensor_id;sensor_type;location;lat;lon;timestamp;P1;durP1;ratioP1;P2;durP2;ratioP2
9449;SDS011;4763;48.370;10.874;2024-01-07T00:01:59;14.80;;;9.73;;
9449;SDS011;4763;48.370;10.874;2024-01-07T00:04:25;14.23;;;9.83;;
9449;SDS011;4763;48.370;10.874;2024-01-07T00:06:52;12.17;;;9.20;;
9449;SDS011;4763;48.370;10.874;2024-01-07T00:09:19;14.87;;;10.13;;
9449;SDS011;4763;48.370;10.874;2024-01-07T00:25:54;13.03;;;9.07;;
9449;SDS011;4763;48.370;10.874;2024-01-07T00:28:21;15.50;;;10.63;;
9449;SDS011;4763;48.370;10.874;2024-01-07T00:31:08;16.63;;;9.40;;
9449;SDS011;4763;48.370;10.874;2024-01-07T00:33:35;13.03;;;9.80;;
9449;SDS011;4763;48.370;10.874;2024-01-07T00:36:02;17.17;;;10.50;;
9449;SDS011;4763;48.370;10.874;2024-01-07T00:38:35;12.93;;;9.83;;
9449;SDS011;4763;48.370;10.874;2024-01-07T00:41:04;14.60;;;10.37;;
9449;SDS011;4763;48.370;10.874;2024-01-07T00:43:31;16.57;;;11.00;;
9449;SDS011;4763;48.370;10.874;2024-01-07T00:45:58;14.23;;;10.27;;
9449;SDS011;4763;48.370;10.874;2024-01-07T00:48:24;15.83;;;10.63;;
9449;SDS011;4763;48.370;10.874;2024-01-07T00:50:51;14.53;;;10.67;;
9449;SDS011;4763;48.370;10.874;2024-01-07T00:53:18;12.23;;;10.27;;
9449;SDS011;4763;48.370;10.874;2024-01-07T00:55:46;14.77;;;10.80;;
9449;SDS011;4763;48.370;10.874;2024-01-07T01:09:18;18.80;;;11.20;;
9449;SDS011;4763;48.370;10.874;2024-01-07T03:33:50;14.00;;;10.67;;
9449;SDS011;4763;48.370;10.874;2024-01-07T03:36:17;15.03;;;10.57;;
9449;SDS011;4763;48.370;10.874;2024-01-07T03:38:43;15.57;;;12.47;;
9449;SDS011;4763;48.370;10.874;2024-01-07T03:41:15;15.73;;;11.93;;
9449;SDS011;4763;48.370;10.874;2024-01-07T03:43:42;15.97;;;11.80;;
9449;SDS011;4763;48.370;10.874;2024-01-07T03:46:09;15.27;;;11.53;;
9449;SDS011;4763;48.370;10.874;2024-01-07T03:48:36;16.07;;;11.37;;
9449;SDS011;4763;48.370;10.874;2024-01-07T03:51:04;15.17;;;11.77;;
9449;SDS011;4763;48.370;10.874;2024-01-07T03:53:31;15.77;;;11.67;;
9449;SDS011;4763;48.370;10.874;2024-01-07T03:55:58;15.43;;;12.23;;
9449;SDS011;4763;48.370;10.874;2024-01-07T03:58:25;17.93;;;13.53;;
9449;SDS011;4763;48.370;10.874;2024-01-07T04:00:51;17.77;;;11.77;;
9449;SDS011;4763;48.370;10.874;2024-01-07T04:03:18;16.23;;;11.50;;
9449;SDS011;4763;48.370;10.874;2024-01-07T04:05:45;15.27;;;11.77;;
9449;SDS011;4763;48.370;10.874;2024-01-07T04:08:13;23.83;;;12.10;;
9449;SDS011;4763;48.370;10.874;2024-01-07T04:10:40;19.37;;;12.33;;
9449;SDS011;4763;48.370;10.874;2024-01-07T04:13:07;16.87;;;12.20;;
9449;SDS011;4763;48.370;10.874;2024-01-07T04:15:34;22.00;;;13.77;;
9449;SDS011;4763;48.370;10.874;2024-01-07T04:18:01;21.43;;;13.20;;
9449;SDS011;4763;48.370;10.874;2024-01-07T04:20:29;19.40;;;12.27;;
9449;SDS011;4763;48.370;10.874;2024-01-07T04:22:55;18.40;;;12.90;;
9449;SDS011;4763;48.370;10.874;2024-01-07T04:25:24;18.67;;;13.43;;
9449;SDS011;4763;48.370;10.874;2024-01-07T04:27:51;19.57;;;13.17;;
9449;SDS011;4763;48.370;10.874;2024-01-07T04:30:17;18.90;;;12.53;;
9449;SDS011;4763;48.370;10.874;2024-01-07T04:32:44;17.63;;;12.83;;
9449;SDS011;4763;48.370;10.874;2024-01-07T05:00:44;16.90;;;12.83;;
9449;SDS011;4763;48.370;10.874;2024-01-07T05:42:59;20.67;;;14.67;;
9449;SDS011;4763;48.370;10.874;2024-01-07T05:45:26;20.83;;;13.77;;
9449;SDS011;4763;48.370;10.874;2024-01-07T05:47:53;21.07;;;14.03;;
9449;SDS011;4763;48.370;10.874;2024-01-07T05:50:20;21.43;;;15.17;;
9449;SDS011;4763;48.370;10.874;2024-01-07T05:52:47;22.67;;;15.00;;
9449;SDS011;4763;48.370;10.874;2024-01-07T05:55:13;21.27;;;14.87;;
9449;SDS011;4763;48.370;10.874;2024-01-07T05:57:40;20.20;;;14.27;;
9449;SDS011;4763;48.370;10.874;2024-01-07T06:00:10;19.43;;;13.87;;
9449;SDS011;4763;48.370;10.874;2024-01-07T06:02:38;20.03;;;13.27;;
9449;SDS011;4763;48.370;10.874;2024-01-07T06:05:05;19.63;;;13.40;;
9449;SDS011;4763;48.370;10.874;2024-01-07T06:07:32;18.83;;;13.43;;
9449;SDS011;4763;48.370;10.874;2024-01-07T06:09:59;20.90;;;14.60;;
9449;SDS011;4763;48.370;10.874;2024-01-07T06:53:03;22.63;;;12.87;;
9449;SDS011;4763;48.370;10.874;2024-01-07T06:55:30;21.67;;;13.07;;
9449;SDS011;4763;48.370;10.874;2024-01-07T06:57:56;20.37;;;13.73;;
9449;SDS011;4763;48.370;10.874;2024-01-07T07:00:23;19.47;;;13.13;;
9449;SDS011;4763;48.370;10.874;2024-01-07T07:02:50;19.17;;;13.53;;
9449;SDS011;4763;48.370;10.874;2024-01-07T07:05:16;19.53;;;13.23;;
9449;SDS011;4763;48.370;10.874;2024-01-07T07:07:43;19.63;;;14.13;;
9449;SDS011;4763;48.370;10.874;2024-01-07T07:10:11;21.33;;;13.70;;
9449;SDS011;4763;48.370;10.874;2024-01-07T07:57:35;19.23;;;12.80;;
9449;SDS011;4763;48.370;10.874;2024-01-07T08:00:03;21.73;;;13.43;;
9449;SDS011;4763;48.370;10.874;2024-01-07T08:02:31;19.23;;;12.70;;
9449;SDS011;4763;48.370;10.874;2024-01-07T08:04:58;18.83;;;12.10;;
9449;SDS011;4763;48.370;10.874;2024-01-07T08:07:24;18.50;;;12.63;;
9449;SDS011;4763;48.370;10.874;2024-01-07T08:09:51;17.70;;;11.57;;
9449;SDS011;4763;48.370;10.874;2024-01-07T08:12:18;18.90;;;13.03;;
9449;SDS011;4763;48.370;10.874;2024-01-07T08:14:46;19.77;;;14.50;;
9449;SDS011;4763;48.370;10.874;2024-01-07T08:17:13;29.53;;;18.27;;
9449;SDS011;4763;48.370;10.874;2024-01-07T08:19:40;30.07;;;20.33;;
9449;SDS011;4763;48.370;10.874;2024-01-07T08:22:07;23.80;;;16.90;;
9449;SDS011;4763;48.370;10.874;2024-01-07T08:24:34;21.67;;;16.03;;
9449;SDS011;4763;48.370;10.874;2024-01-07T08:27:01;20.97;;;14.27;;
9449;SDS011;4763;48.370;10.874;2024-01-07T08:29:28;21.40;;;13.63;;
9449;SDS011;4763;48.370;10.874;2024-01-07T08:31:56;22.17;;;13.03;;
9449;SDS011;4763;48.370;10.874;2024-01-07T08:34:23;27.93;;;18.10;;
9449;SDS011;4763;48.370;10.874;2024-01-07T08:36:50;31.33;;;19.77;;
9449;SDS011;4763;48.370;10.874;2024-01-07T08:39:18;25.73;;;17.30;;
9449;SDS011;4763;48.370;10.874;2024-01-07T08:41:45;25.43;;;17.70;;
9449;SDS011;4763;48.370;10.874;2024-01-07T08:44:12;39.47;;;25.73;;
9449;SDS011;4763;48.370;10.874;2024-01-07T08:46:39;30.20;;;20.10;;
9449;SDS011;4763;48.370;10.874;2024-01-07T08:49:07;26.70;;;17.10;;
9449;SDS011;4763;48.370;10.874;2024-01-07T08:51:34;22.00;;;16.33;;
9449;SDS011;4763;48.370;10.874;2024-01-07T08:54:00;52.97;;;18.30;;
9449;SDS011;4763;48.370;10.874;2024-01-07T08:56:27;25.27;;;14.33;;
9449;SDS011;4763;48.370;10.874;2024-01-07T08:58:54;25.13;;;16.73;;
9449;SDS011;4763;48.370;10.874;2024-01-07T10:00:29;15.77;;;10.17;;
9449;SDS011;4763;48.370;10.874;2024-01-07T10:02:56;15.80;;;10.63;;
9449;SDS011;4763;48.370;10.874;2024-01-07T10:05:22;19.27;;;11.07;;
9449;SDS011;4763;48.370;10.874;2024-01-07T10:48:06;15.23;;;10.23;;
9449;SDS011;4763;48.370;10.874;2024-01-07T10:50:35;15.10;;;10.37;;
9449;SDS011;4763;48.370;10.874;2024-01-07T10:53:03;14.83;;;10.60;;
9449;SDS011;4763;48.370;10.874;2024-01-07T10:55:33;19.40;;;13.33;;
9449;SDS011;4763;48.370;10.874;2024-01-07T10:58:01;17.10;;;11.47;;
9449;SDS011;4763;48.370;10.874;2024-01-07T11:00:29;17.17;;;11.27;;
9449;SDS011;4763;48.370;10.874;2024-01-07T11:02:59;14.90;;;9.30;;
9449;SDS011;4763;48.370;10.874;2024-01-07T11:05:33;15.77;;;9.53;;
9449;SDS011;4763;48.370;10.874;2024-01-07T11:25:56;18.87;;;10.20;;
9449;SDS011;4763;48.370;10.874;2024-01-07T11:28:43;15.37;;;9.30;;
9449;SDS011;4763;48.370;10.874;2024-01-07T11:31:10;13.23;;;9.13;;
9449;SDS011;4763;48.370;10.874;2024-01-07T12:14:17;15.80;;;9.77;;
9449;SDS011;4763;48.370;10.874;2024-01-07T12:16:44;13.00;;;8.40;;
9449;SDS011;4763;48.370;10.874;2024-01-07T12:19:11;14.87;;;8.80;;
9449;SDS011;4763;48.370;10.874;2024-01-07T12:21:41;22.47;;;12.97;;
9449;SDS011;4763;48.370;10.874;2024-01-07T12:24:08;16.23;;;10.87;;
9449;SDS011;4763;48.370;10.874;2024-01-07T12:26:34;16.37;;;10.43;;
9449;SDS011;4763;48.370;10.874;2024-01-07T12:29:02;16.60;;;9.73;;
9449;SDS011;4763;48.370;10.874;2024-01-07T12:31:36;15.73;;;9.87;;
9449;SDS011;4763;48.370;10.874;2024-01-07T12:34:04;16.13;;;9.47;;
9449;SDS011;4763;48.370;10.874;2024-01-07T12:36:31;16.40;;;10.60;;
9449;SDS011;4763;48.370;10.874;2024-01-07T12:38:57;16.67;;;10.67;;
9449;SDS011;4763;48.370;10.874;2024-01-07T12:41:26;15.00;;;9.47;;
9449;SDS011;4763;48.370;10.874;2024-01-07T12:57:11;16.40;;;10.73;;
9449;SDS011;4763;48.370;10.874;2024-01-07T12:59:39;15.43;;;10.07;;
9449;SDS011;4763;48.370;10.874;2024-01-07T13:02:06;14.60;;;10.07;;
9449;SDS011;4763;48.370;10.874;2024-01-07T13:04:37;16.60;;;10.60;;
9449;SDS011;4763;48.370;10.874;2024-01-07T13:07:07;15.60;;;10.17;;
9449;SDS011;4763;48.370;10.874;2024-01-07T13:09:33;14.80;;;10.07;;
9449;SDS011;4763;48.370;10.874;2024-01-07T13:12:04;16.80;;;10.10;;
9449;SDS011;4763;48.370;10.874;2024-01-07T13:14:32;17.10;;;10.60;;
9449;SDS011;4763;48.370;10.874;2024-01-07T13:31:46;14.70;;;10.33;;
9449;SDS011;4763;48.370;10.874;2024-01-07T13:34:16;15.83;;;10.90;;
9449;SDS011;4763;48.370;10.874;2024-01-07T13:36:44;18.30;;;11.33;;
9449;SDS011;4763;48.370;10.874;2024-01-07T13:39:11;19.20;;;14.80;;
9449;SDS011;4763;48.370;10.874;2024-01-07T13:41:41;16.33;;;11.07;;
9449;SDS011;4763;48.370;10.874;2024-01-07T13:44:08;18.53;;;11.43;;
9449;SDS011;4763;48.370;10.874;2024-01-07T13:46:43;17.73;;;11.50;;
9449;SDS011;4763;48.370;10.874;2024-01-07T13:49:12;17.50;;;11.03;;
9449;SDS011;4763;48.370;10.874;2024-01-07T13:51:39;15.97;;;9.80;;
9449;SDS011;4763;48.370;10.874;2024-01-07T13:54:06;17.03;;;11.10;;
9449;SDS011;4763;48.370;10.874;2024-01-07T13:56:34;18.40;;;12.00;;
9449;SDS011;4763;48.370;10.874;2024-01-07T13:59:02;21.20;;;11.90;;
9449;SDS011;4763;48.370;10.874;2024-01-07T14:01:29;16.83;;;11.30;;
9449;SDS011;4763;48.370;10.874;2024-01-07T14:03:55;16.87;;;11.13;;
9449;SDS011;4763;48.370;10.874;2024-01-07T14:06:24;19.47;;;11.40;;
9449;SDS011;4763;48.370;10.874;2024-01-07T14:08:50;16.00;;;10.67;;
9449;SDS011;4763;48.370;10.874;2024-01-07T14:11:18;17.80;;;11.30;;
9449;SDS011;4763;48.370;10.874;2024-01-07T14:13:46;19.97;;;13.00;;
9449;SDS011;4763;48.370;10.874;2024-01-07T14:16:12;16.43;;;10.93;;
9449;SDS011;4763;48.370;10.874;2024-01-07T14:18:39;21.87;;;12.27;;
9449;SDS011;4763;48.370;10.874;2024-01-07T14:21:06;16.47;;;10.83;;
9449;SDS011;4763;48.370;10.874;2024-01-07T14:23:35;19.47;;;12.07;;
9449;SDS011;4763;48.370;10.874;2024-01-07T14:26:02;22.20;;;12.30;;
9449;SDS011;4763;48.370;10.874;2024-01-07T14:28:29;19.23;;;11.67;;
9449;SDS011;4763;48.370;10.874;2024-01-07T14:30:56;20.27;;;11.73;;
9449;SDS011;4763;48.370;10.874;2024-01-07T14:33:46;20.00;;;12.47;;
9449;SDS011;4763;48.370;10.874;2024-01-07T14:44:25;20.70;;;12.27;;
9449;SDS011;4763;48.370;10.874;2024-01-07T14:46:52;18.53;;;12.20;;
9449;SDS011;4763;48.370;10.874;2024-01-07T14:49:19;18.97;;;11.33;;
9449;SDS011;4763;48.370;10.874;2024-01-07T14:51:46;22.80;;;12.53;;
9449;SDS011;4763;48.370;10.874;2024-01-07T14:54:13;22.60;;;13.20;;
9449;SDS011;4763;48.370;10.874;2024-01-07T14:56:39;25.00;;;16.10;;
9449;SDS011;4763;48.370;10.874;2024-01-07T14:59:07;34.73;;;23.27;;
9449;SDS011;4763;48.370;10.874;2024-01-07T15:01:36;32.23;;;20.87;;
9449;SDS011;4763;48.370;10.874;2024-01-07T15:04:04;21.97;;;14.13;;
9449;SDS011;4763;48.370;10.874;2024-01-07T15:06:38;20.33;;;13.73;;
9449;SDS011;4763;48.370;10.874;2024-01-07T15:09:06;19.77;;;12.17;;
9449;SDS011;4763;48.370;10.874;2024-01-07T15:11:33;19.37;;;12.17;;
9449;SDS011;4763;48.370;10.874;2024-01-07T15:14:00;17.90;;;12.60;;
9449;SDS011;4763;48.370;10.874;2024-01-07T15:16:31;25.40;;;13.50;;
9449;SDS011;4763;48.370;10.874;2024-01-07T15:19:01;19.33;;;12.03;;
9449;SDS011;4763;48.370;10.874;2024-01-07T15:21:28;21.77;;;12.83;;
9449;SDS011;4763;48.370;10.874;2024-01-07T15:23:55;20.13;;;13.03;;
9449;SDS011;4763;48.370;10.874;2024-01-07T15:26:22;19.63;;;12.47;;
9449;SDS011;4763;48.370;10.874;2024-01-07T15:28:49;18.43;;;12.23;;
9449;SDS011;4763;48.370;10.874;2024-01-07T15:31:19;18.63;;;11.70;;
9449;SDS011;4763;48.370;10.874;2024-01-07T15:33:53;24.27;;;12.63;;
9449;SDS011;4763;48.370;10.874;2024-01-07T15:36:22;20.97;;;12.73;;
9449;SDS011;4763;48.370;10.874;2024-01-07T15:38:49;18.43;;;11.37;;
9449;SDS011;4763;48.370;10.874;2024-01-07T15:41:16;21.63;;;11.60;;
9449;SDS011;4763;48.370;10.874;2024-01-07T15:43:43;19.77;;;11.87;;
9449;SDS011;4763;48.370;10.874;2024-01-07T15:46:11;18.00;;;11.57;;
9449;SDS011;4763;48.370;10.874;2024-01-07T15:48:37;21.40;;;12.37;;
9449;SDS011;4763;48.370;10.874;2024-01-07T15:51:04;18.97;;;11.80;;
9449;SDS011;4763;48.370;10.874;2024-01-07T15:53:33;38.90;;;18.80;;
9449;SDS011;4763;48.370;10.874;2024-01-07T15:56:00;135.27;;;52.37;;
9449;SDS011;4763;48.370;10.874;2024-01-07T15:58:31;118.67;;;50.60;;
9449;SDS011;4763;48.370;10.874;2024-01-07T16:00:59;60.00;;;30.20;;
9449;SDS011;4763;48.370;10.874;2024-01-07T16:03:28;23.00;;;13.37;;
9449;SDS011;4763;48.370;10.874;2024-01-07T16:05:55;21.13;;;13.00;;
9449;SDS011;4763;48.370;10.874;2024-01-07T16:08:26;22.97;;;14.37;;
9449;SDS011;4763;48.370;10.874;2024-01-07T16:10:57;21.57;;;13.87;;
9449;SDS011;4763;48.370;10.874;2024-01-07T16:13:28;23.07;;;14.63;;
9449;SDS011;4763;48.370;10.874;2024-01-07T16:15:55;20.43;;;12.83;;
9449;SDS011;4763;48.370;10.874;2024-01-07T16:18:21;23.67;;;15.03;;
9449;SDS011;4763;48.370;10.874;2024-01-07T16:20:48;21.00;;;13.67;;
9449;SDS011;4763;48.370;10.874;2024-01-07T16:23:15;17.27;;;12.83;;
9449;SDS011;4763;48.370;10.874;2024-01-07T16:25:42;21.53;;;12.93;;
9449;SDS011;4763;48.370;10.874;2024-01-07T16:28:10;21.03;;;12.60;;
9449;SDS011;4763;48.370;10.874;2024-01-07T16:30:37;19.43;;;11.77;;
9449;SDS011;4763;48.370;10.874;2024-01-07T16:33:03;15.07;;;9.60;;
9449;SDS011;4763;48.370;10.874;2024-01-07T16:35:30;24.23;;;13.03;;
9449;SDS011;4763;48.370;10.874;2024-01-07T16:38:01;18.70;;;12.57;;
9449;SDS011;4763;48.370;10.874;2024-01-07T16:40:28;14.63;;;10.47;;
9449;SDS011;4763;48.370;10.874;2024-01-07T16:42:54;16.60;;;10.57;;
9449;SDS011;4763;48.370;10.874;2024-01-07T16:45:25;15.20;;;10.13;;
9449;SDS011;4763;48.370;10.874;2024-01-07T16:47:52;15.10;;;9.60;;
9449;SDS011;4763;48.370;10.874;2024-01-07T16:50:18;15.83;;;9.43;;
9449;SDS011;4763;48.370;10.874;2024-01-07T16:52:45;16.60;;;10.20;;
9449;SDS011;4763;48.370;10.874;2024-01-07T16:55:12;18.17;;;10.90;;
9449;SDS011;4763;48.370;10.874;2024-01-07T16:57:39;13.53;;;9.90;;
9449;SDS011;4763;48.370;10.874;2024-01-07T17:00:07;14.90;;;9.57;;
9449;SDS011;4763;48.370;10.874;2024-01-07T17:02:36;14.33;;;8.87;;
9449;SDS011;4763;48.370;10.874;2024-01-07T17:30:58;14.97;;;10.50;;
9449;SDS011;4763;48.370;10.874;2024-01-07T17:46:23;13.70;;;9.17;;
9449;SDS011;4763;48.370;10.874;2024-01-07T17:48:53;15.83;;;10.57;;
9449;SDS011;4763;48.370;10.874;2024-01-07T17:51:21;15.13;;;8.83;;
9449;SDS011;4763;48.370;10.874;2024-01-07T17:53:51;13.83;;;9.20;;
9449;SDS011;4763;48.370;10.874;2024-01-07T17:56:20;12.80;;;7.90;;
9449;SDS011;4763;48.370;10.874;2024-01-07T17:58:56;13.63;;;8.23;;
9449;SDS011;4763;48.370;10.874;2024-01-07T18:01:28;12.97;;;8.80;;
9449;SDS011;4763;48.370;10.874;2024-01-07T18:03:55;12.93;;;8.40;;
9449;SDS011;4763;48.370;10.874;2024-01-07T18:06:22;17.63;;;8.57;;
9449;SDS011;4763;48.370;10.874;2024-01-07T18:08:50;12.97;;;8.87;;
9449;SDS011;4763;48.370;10.874;2024-01-07T18:11:18;12.93;;;9.17;;
9449;SDS011;4763;48.370;10.874;2024-01-07T18:16:44;12.97;;;8.50;;
9449;SDS011;4763;48.370;10.874;2024-01-07T18:19:14;15.20;;;8.77;;
9449;SDS011;4763;48.370;10.874;2024-01-07T18:42:29;10.97;;;6.90;;
9449;SDS011;4763;48.370;10.874;2024-01-07T18:47:54;12.43;;;7.57;;
9449;SDS011;4763;48.370;10.874;2024-01-07T18:50:33;11.17;;;6.03;;
9449;SDS011;4763;48.370;10.874;2024-01-07T18:53:05;13.43;;;8.07;;
9449;SDS011;4763;48.370;10.874;2024-01-07T18:55:37;10.83;;;7.13;;
9449;SDS011;4763;48.370;10.874;2024-01-07T18:58:51;11.80;;;7.87;;
9449;SDS011;4763;48.370;10.874;2024-01-07T19:01:17;9.77;;;6.30;;
9449;SDS011;4763;48.370;10.874;2024-01-07T19:03:44;13.90;;;7.60;;
9449;SDS011;4763;48.370;10.874;2024-01-07T19:06:11;8.60;;;7.00;;
9449;SDS011;4763;48.370;10.874;2024-01-07T19:08:38;14.77;;;6.93;;
9449;SDS011;4763;48.370;10.874;2024-01-07T19:11:05;11.43;;;7.77;;
9449;SDS011;4763;48.370;10.874;2024-01-07T19:13:32;11.47;;;7.13;;
9449;SDS011;4763;48.370;10.874;2024-01-07T19:16:00;13.47;;;8.10;;
9449;SDS011;4763;48.370;10.874;2024-01-07T19:18:27;12.90;;;7.27;;
9449;SDS011;4763;48.370;10.874;2024-01-07T19:20:55;12.10;;;7.63;;
9449;SDS011;4763;48.370;10.874;2024-01-07T19:23:21;11.83;;;7.70;;
9449;SDS011;4763;48.370;10.874;2024-01-07T19:25:48;15.37;;;8.27;;
9449;SDS011;4763;48.370;10.874;2024-01-07T19:28:15;12.57;;;8.20;;
9449;SDS011;4763;48.370;10.874;2024-01-07T19:30:41;11.77;;;8.10;;
9449;SDS011;4763;48.370;10.874;2024-01-07T19:33:11;13.53;;;8.67;;
9449;SDS011;4763;48.370;10.874;2024-01-07T19:35:38;17.73;;;9.00;;
9449;SDS011;4763;48.370;10.874;2024-01-07T19:38:05;14.67;;;9.23;;
9449;SDS011;4763;48.370;10.874;2024-01-07T19:40:32;18.43;;;10.03;;
9449;SDS011;4763;48.370;10.874;2024-01-07T19:42:59;18.73;;;9.73;;
9449;SDS011;4763;48.370;10.874;2024-01-07T19:45:26;17.90;;;9.23;;
9449;SDS011;4763;48.370;10.874;2024-01-07T19:47:53;16.27;;;9.73;;
9449;SDS011;4763;48.370;10.874;2024-01-07T19:50:21;14.53;;;8.67;;
9449;SDS011;4763;48.370;10.874;2024-01-07T19:52:50;15.60;;;9.63;;
9449;SDS011;4763;48.370;10.874;2024-01-07T19:55:17;13.87;;;8.93;;
9449;SDS011;4763;48.370;10.874;2024-01-07T19:57:43;16.10;;;9.80;;
9449;SDS011;4763;48.370;10.874;2024-01-07T20:00:10;16.07;;;10.00;;
9449;SDS011;4763;48.370;10.874;2024-01-07T20:02:38;15.27;;;9.37;;
9449;SDS011;4763;48.370;10.874;2024-01-07T20:05:05;19.50;;;11.57;;
9449;SDS011;4763;48.370;10.874;2024-01-07T20:07:34;16.30;;;11.10;;
9449;SDS011;4763;48.370;10.874;2024-01-07T20:10:01;16.60;;;9.37;;
9449;SDS011;4763;48.370;10.874;2024-01-07T20:12:29;16.63;;;10.63;;
9449;SDS011;4763;48.370;10.874;2024-01-07T20:14:56;15.90;;;10.10;;
9449;SDS011;4763;48.370;10.874;2024-01-07T20:17:23;15.73;;;10.47;;
9449;SDS011;4763;48.370;10.874;2024-01-07T20:19:50;14.53;;;10.10;;
9449;SDS011;4763;48.370;10.874;2024-01-07T20:22:17;17.20;;;10.63;;
9449;SDS011;4763;48.370;10.874;2024-01-07T20:24:45;18.00;;;11.80;;
9449;SDS011;4763;48.370;10.874;2024-01-07T20:27:12;18.80;;;11.87;;
9449;SDS011;4763;48.370;10.874;2024-01-07T20:29:39;20.33;;;11.83;;
9449;SDS011;4763;48.370;10.874;2024-01-07T20:32:06;20.03;;;11.73;;
9449;SDS011;4763;48.370;10.874;2024-01-07T20:34:33;16.93;;;11.17;;
9449;SDS011;4763;48.370;10.874;2024-01-07T20:37:02;16.03;;;10.57;;
9449;SDS011;4763;48.370;10.874;2024-01-07T20:39:29;14.50;;;10.40;;
9449;SDS011;4763;48.370;10.874;2024-01-07T20:41:58;15.23;;;10.67;;
9449;SDS011;4763;48.370;10.874;2024-01-07T20:44:25;15.33;;;10.20;;
9449;SDS011;4763;48.370;10.874;2024-01-07T20:46:52;15.10;;;10.80;;
9449;SDS011;4763;48.370;10.874;2024-01-07T20:49:19;15.53;;;10.27;;
9449;SDS011;4763;48.370;10.874;2024-01-07T20:51:46;13.60;;;9.03;;
9449;SDS011;4763;48.370;10.874;2024-01-07T20:54:13;17.87;;;10.77;;
9449;SDS011;4763;48.370;10.874;2024-01-07T20:56:40;13.10;;;10.03;;
9449;SDS011;4763;48.370;10.874;2024-01-07T20:59:09;11.93;;;9.00;;
9449;SDS011;4763;48.370;10.874;2024-01-07T21:01:36;13.07;;;9.20;;
9449;SDS011;4763;48.370;10.874;2024-01-07T21:04:02;18.27;;;10.50;;
9449;SDS011;4763;48.370;10.874;2024-01-07T21:06:31;16.27;;;10.23;;
9449;SDS011;4763;48.370;10.874;2024-01-07T21:08:58;13.27;;;9.47;;
9449;SDS011;4763;48.370;10.874;2024-01-07T21:11:25;12.43;;;9.73;;
9449;SDS011;4763;48.370;10.874;2024-01-07T21:13:52;12.50;;;9.87;;
9449;SDS011;4763;48.370;10.874;2024-01-07T21:16:20;11.27;;;9.17;;
9449;SDS011;4763;48.370;10.874;2024-01-07T21:18:47;15.47;;;8.67;;
9449;SDS011;4763;48.370;10.874;2024-01-07T21:21:14;10.33;;;8.00;;
9449;SDS011;4763;48.370;10.874;2024-01-07T21:23:41;11.50;;;7.73;;
9449;SDS011;4763;48.370;10.874;2024-01-07T21:26:08;11.07;;;8.03;;
9449;SDS011;4763;48.370;10.874;2024-01-07T21:28:35;13.77;;;8.57;;
9449;SDS011;4763;48.370;10.874;2024-01-07T21:31:02;12.80;;;8.80;;
9449;SDS011;4763;48.370;10.874;2024-01-07T21:33:31;12.63;;;7.97;;
9449;SDS011;4763;48.370;10.874;2024-01-07T21:35:58;12.70;;;8.33;;
9449;SDS011;4763;48.370;10.874;2024-01-07T21:38:25;9.57;;;7.60;;
9449;SDS011;4763;48.370;10.874;2024-01-07T21:40:52;11.13;;;8.07;;
9449;SDS011;4763;48.370;10.874;2024-01-07T21:43:20;12.43;;;8.43;;
9449;SDS011;4763;48.370;10.874;2024-01-07T21:45:47;13.57;;;8.23;;
9449;SDS011;4763;48.370;10.874;2024-01-07T21:48:14;12.87;;;8.50;;
9449;SDS011;4763;48.370;10.874;2024-01-07T21:50:42;10.60;;;8.50;;
9449;SDS011;4763;48.370;10.874;2024-01-07T21:53:08;11.60;;;8.77;;
9449;SDS011;4763;48.370;10.874;2024-01-07T21:55:42;10.43;;;7.53;;
9449;SDS011;4763;48.370;10.874;2024-01-07T22:06:39;12.80;;;7.60;;
9449;SDS011;4763;48.370;10.874;2024-01-07T22:09:06;9.00;;;6.83;;
9449;SDS011;4763;48.370;10.874;2024-01-07T22:11:33;9.63;;;7.20;;
9449;SDS011;4763;48.370;10.874;2024-01-07T22:14:02;10.60;;;7.30;;
9449;SDS011;4763;48.370;10.874;2024-01-07T22:16:29;9.17;;;6.70;;
9449;SDS011;4763;48.370;10.874;2024-01-07T22:21:49;10.07;;;6.97;;
9449;SDS011;4763;48.370;10.874;2024-01-07T22:24:39;8.70;;;6.10;;
9449;SDS011;4763;48.370;10.874;2024-01-07T22:27:12;8.43;;;6.43;;
9449;SDS011;4763;48.370;10.874;2024-01-07T22:29:55;9.30;;;6.93;;
9449;SDS011;4763;48.370;10.874;2024-01-07T22:32:26;9.67;;;6.70;;
9449;SDS011;4763;48.370;10.874;2024-01-07T22:35:43;9.43;;;6.77;;
9449;SDS011;4763;48.370;10.874;2024-01-07T22:41:39;15.90;;;6.93;;
9449;SDS011;4763;48.370;10.874;2024-01-07T22:44:11;9.77;;;7.20;;
9449;SDS011;4763;48.370;10.874;2024-01-07T22:46:42;7.33;;;6.50;;
9449;SDS011;4763;48.370;10.874;2024-01-07T22:49:11;11.13;;;7.27;;
9449;SDS011;4763;48.370;10.874;2024-01-07T22:52:17;8.20;;;6.07;;
9449;SDS011;4763;48.370;10.874;2024-01-07T22:54:46;9.70;;;6.07;;
9449;SDS011;4763;48.370;10.874;2024-01-07T22:57:14;10.50;;;6.43;;
9449;SDS011;4763;48.370;10.874;2024-01-07T22:59:42;9.00;;;5.93;;
9449;SDS011;4763;48.370;10.874;2024-01-07T23:02:10;10.23;;;6.13;;
9449;SDS011;4763;48.370;10.874;2024-01-07T23:04:40;8.50;;;6.50;;
9449;SDS011;4763;48.370;10.874;2024-01-07T23:07:06;8.70;;;6.37;;
9449;SDS011;4763;48.370;10.874;2024-01-07T23:09:33;7.13;;;6.07;;
9449;SDS011;4763;48.370;10.874;2024-01-07T23:12:01;8.57;;;6.23;;
9449;SDS011;4763;48.370;10.874;2024-01-07T23:14:28;8.07;;;5.40;;
9449;SDS011;4763;48.370;10.874;2024-01-07T23:16:55;9.37;;;6.17;;
9449;SDS011;4763;48.370;10.874;2024-01-07T23:19:21;9.43;;;6.10;;
9449;SDS011;4763;48.370;10.874;2024-01-07T23:21:49;8.53;;;6.00;;
9449;SDS011;4763;48.370;10.874;2024-01-07T23:24:16;7.03;;;5.30;;
9449;SDS011;4763;48.370;10.874;2024-01-07T23:26:44;9.63;;;5.80;;
9449;SDS011;4763;48.370;10.874;2024-01-07T23:29:13;7.83;;;5.93;;
9449;SDS011;4763;48.370;10.874;2024-01-07T23:31:40;7.73;;;5.93;;
9449;SDS011;4763;48.370;10.874;2024-01-07T23:34:08;7.27;;;5.23;;
9449;SDS011;4763;48.370;10.874;2024-01-07T23:36:35;7.50;;;5.37;;
9449;SDS011;4763;48.370;10.874;2024-01-07T23:39:02;7.50;;;5.73;;
9449;SDS011;4763;48.370;10.874;2024-01-07T23:41:30;7.10;;;5.57;;
9449;SDS011;4763;48.370;10.874;2024-01-07T23:43:57;8.13;;;6.00;;
9449;SDS011;4763;48.370;10.874;2024-01-07T23:46:26;6.60;;;4.97;;
9449;SDS011;4763;48.370;10.874;2024-01-07T23:48:53;7.23;;;5.00;;
9449;SDS011;4763;48.370;10.874;2024-01-07T23:51:21;5.70;;;4.80;;
9449;SDS011;4763;48.370;10.874;2024-01-07T23:53:59;6.53;;;5.17;;
9449;SDS011;4763;48.370;10.874;2024-01-07T23:56:26;7.30;;;5.20;;
9449;SDS011;4763;48.370;10.874;2024-01-07T23:58:53;6.17;;;4.80;;
